sensor_id;sensor_type;location;lat;lon;timestamp;pressure;altitude;pressure_sealevel;temperature
71960;BMP280;59832;51.146;14.024;2023-11-21T00:00:51;97522.69;;;5.80
71960;BMP280;59832;51.146;14.024;2023-11-21T00:03:18;97519.75;;;5.78
71960;BMP280;59832;51.146;14.024;2023-11-21T00:05:45;97514.59;;;5.74
71960;BMP280;59832;51.146;14.024;2023-11-21T00:08:12;97523.97;;;5.74
71960;BMP280;59832;51.146;14.024;2023-11-21T00:10:38;97525.44;;;5.75
71960;BMP280;59832;51.146;14.024;2023-11-21T00:13:05;97519.75;;;5.78
71960;BMP280;59832;51.146;14.024;2023-11-21T00:15:31;97524.81;;;5.78
71960;BMP280;59832;51.146;14.024;2023-11-21T00:17:58;97520.50;;;5.78
71960;BMP280;59832;51.146;14.024;2023-11-21T00:20:24;97516.19;;;5.79
71960;BMP280;59832;51.146;14.024;2023-11-21T00:22:51;97520.56;;;5.82
71960;BMP280;59832;51.146;14.024;2023-11-21T00:25:17;97524.25;;;5.84
71960;BMP280;59832;51.146;14.024;2023-11-21T00:27:44;97526.13;;;5.87
71960;BMP280;59832;51.146;14.024;2023-11-21T00:30:10;97516.84;;;5.91
71960;BMP280;59832;51.146;14.024;2023-11-21T00:32:37;97522.84;;;5.99
71960;BMP280;59832;51.146;14.024;2023-11-21T00:35:04;97529.19;;;6.09
71960;BMP280;59832;51.146;14.024;2023-11-21T00:37:30;97530.94;;;6.20
71960;BMP280;59832;51.146;14.024;2023-11-21T00:39:58;97532.81;;;6.23
71960;BMP280;59832;51.146;14.024;2023-11-21T00:42:25;97532.59;;;6.28
71960;BMP280;59832;51.146;14.024;2023-11-21T00:44:51;97529.78;;;6.33
71960;BMP280;59832;51.146;14.024;2023-11-21T00:47:17;97533.47;;;6.36
71960;BMP280;59832;51.146;14.024;2023-11-21T00:49:44;97533.47;;;6.36
71960;BMP280;59832;51.146;14.024;2023-11-21T00:52:10;97528.50;;;6.39
71960;BMP280;59832;51.146;14.024;2023-11-21T00:54:37;97534.28;;;6.40
71960;BMP280;59832;51.146;14.024;2023-11-21T00:57:03;97526.72;;;6.40
71960;BMP280;59832;51.146;14.024;2023-11-21T00:59:30;97530.06;;;6.44
71960;BMP280;59832;51.146;14.024;2023-11-21T01:01:56;97536.25;;;6.47
71960;BMP280;59832;51.146;14.024;2023-11-21T01:04:26;97538.13;;;6.50
71960;BMP280;59832;51.146;14.024;2023-11-21T01:06:53;97542.44;;;6.49
71960;BMP280;59832;51.146;14.024;2023-11-21T01:09:19;97538.88;;;6.50
71960;BMP280;59832;51.146;14.024;2023-11-21T01:11:46;97546.88;;;6.52
71960;BMP280;59832;51.146;14.024;2023-11-21T01:14:12;97544.66;;;6.51
71960;BMP280;59832;51.146;14.024;2023-11-21T01:16:39;97542.53;;;6.53
71960;BMP280;59832;51.146;14.024;2023-11-21T01:19:06;97548.41;;;6.57
71960;BMP280;59832;51.146;14.024;2023-11-21T01:21:33;97546.69;;;6.61
71960;BMP280;59832;51.146;14.024;2023-11-21T01:24:00;97549.31;;;6.64
71960;BMP280;59832;51.146;14.024;2023-11-21T01:26:26;97553.38;;;6.69
71960;BMP280;59832;51.146;14.024;2023-11-21T01:28:53;97551.25;;;6.71
71960;BMP280;59832;51.146;14.024;2023-11-21T01:31:20;97553.38;;;6.69
71960;BMP280;59832;51.146;14.024;2023-11-21T01:33:47;97557.47;;;6.73
71960;BMP280;59832;51.146;14.024;2023-11-21T01:36:14;97553.16;;;6.74
71960;BMP280;59832;51.146;14.024;2023-11-21T01:38:41;97552.41;;;6.73
71960;BMP280;59832;51.146;14.024;2023-11-21T01:41:08;97555.44;;;6.79
71960;BMP280;59832;51.146;14.024;2023-11-21T01:43:37;97555.03;;;6.77
71960;BMP280;59832;51.146;14.024;2023-11-21T01:46:04;97563.44;;;6.81
71960;BMP280;59832;51.146;14.024;2023-11-21T01:48:32;97560.06;;;6.77
71960;BMP280;59832;51.146;14.024;2023-11-21T01:50:59;97555.44;;;6.79
71960;BMP280;59832;51.146;14.024;2023-11-21T01:53:26;97559.13;;;6.81
71960;BMP280;59832;51.146;14.024;2023-11-21T01:55:52;97559.75;;;6.78
71960;BMP280;59832;51.146;14.024;2023-11-21T01:58:23;97559.13;;;6.81
71960;BMP280;59832;51.146;14.024;2023-11-21T02:00:49;97559.25;;;6.89
71960;BMP280;59832;51.146;14.024;2023-11-21T02:03:17;97549.38;;;6.83
71960;BMP280;59832;51.146;14.024;2023-11-21T02:05:43;97557.53;;;6.93
71960;BMP280;59832;51.146;14.024;2023-11-21T02:08:10;97558.59;;;6.92
71960;BMP280;59832;51.146;14.024;2023-11-21T02:10:37;97558.94;;;6.90
71960;BMP280;59832;51.146;14.024;2023-11-21T02:13:03;97559.25;;;6.89
71960;BMP280;59832;51.146;14.024;2023-11-21T02:15:30;97565.06;;;6.89
71960;BMP280;59832;51.146;14.024;2023-11-21T02:17:56;97562.22;;;6.91
71960;BMP280;59832;51.146;14.024;2023-11-21T02:20:25;97560.81;;;6.93
71960;BMP280;59832;51.146;14.024;2023-11-21T02:22:52;97560.13;;;6.96
71960;BMP280;59832;51.146;14.024;2023-11-21T02:25:26;97559.41;;;6.96
71960;BMP280;59832;51.146;14.024;2023-11-21T02:27:57;97571.31;;;6.95
71960;BMP280;59832;51.146;14.024;2023-11-21T02:30:24;97566.59;;;6.94
71960;BMP280;59832;51.146;14.024;2023-11-21T02:33:09;97564.22;;;7.01
71960;BMP280;59832;51.146;14.024;2023-11-21T02:35:36;97556.31;;;7.02
71960;BMP280;59832;51.146;14.024;2023-11-21T02:38:04;97560.88;;;6.97
71960;BMP280;59832;51.146;14.024;2023-11-21T02:40:30;97563.72;;;6.95
71960;BMP280;59832;51.146;14.024;2023-11-21T02:42:57;97573.84;;;6.95
71960;BMP280;59832;51.146;14.024;2023-11-21T02:45:25;97573.78;;;6.92
71960;BMP280;59832;51.146;14.024;2023-11-21T02:47:52;97573.53;;;6.97
71960;BMP280;59832;51.146;14.024;2023-11-21T02:50:24;97578.66;;;7.00
71960;BMP280;59832;51.146;14.024;2023-11-21T02:52:50;97577.94;;;7.00
71960;BMP280;59832;51.146;14.024;2023-11-21T02:55:17;97575.06;;;7.01
71960;BMP280;59832;51.146;14.024;2023-11-21T02:57:44;97571.47;;;7.02
71960;BMP280;59832;51.146;14.024;2023-11-21T03:00:10;97572.22;;;7.03
71960;BMP280;59832;51.146;14.024;2023-11-21T03:02:39;97569.78;;;7.06
71960;BMP280;59832;51.146;14.024;2023-11-21T03:05:06;97565.38;;;7.03
71960;BMP280;59832;51.146;14.024;2023-11-21T03:07:36;97570.00;;;7.01
71960;BMP280;59832;51.146;14.024;2023-11-21T03:10:03;97575.63;;;6.95
71960;BMP280;59832;51.146;14.024;2023-11-21T03:12:30;97570.91;;;6.93
71960;BMP280;59832;51.146;14.024;2023-11-21T03:14:56;97575.72;;;6.98
71960;BMP280;59832;51.146;14.024;2023-11-21T03:17:23;97579.19;;;6.90
71960;BMP280;59832;51.146;14.024;2023-11-21T03:19:50;97579.19;;;6.90
71960;BMP280;59832;51.146;14.024;2023-11-21T03:22:18;97582.34;;;6.87
71960;BMP280;59832;51.146;14.024;2023-11-21T03:24:45;97574.03;;;6.86
71960;BMP280;59832;51.146;14.024;2023-11-21T03:27:12;97575.97;;;6.93
71960;BMP280;59832;51.146;14.024;2023-11-21T03:29:38;97582.16;;;6.96
71960;BMP280;59832;51.146;14.024;2023-11-21T03:32:05;97590.03;;;6.91
71960;BMP280;59832;51.146;14.024;2023-11-21T03:34:33;97581.94;;;6.85
71960;BMP280;59832;51.146;14.024;2023-11-21T03:37:00;97587.16;;;6.92
71960;BMP280;59832;51.146;14.024;2023-11-21T03:39:26;97581.03;;;6.93
71960;BMP280;59832;51.146;14.024;2023-11-21T03:41:52;97584.97;;;6.91
71960;BMP280;59832;51.146;14.024;2023-11-21T03:44:19;97583.88;;;6.92
71960;BMP280;59832;51.146;14.024;2023-11-21T03:46:45;97586.03;;;6.90
71960;BMP280;59832;51.146;14.024;2023-11-21T03:49:11;97591.81;;;6.90
71960;BMP280;59832;51.146;14.024;2023-11-21T03:51:38;97591.56;;;6.95
71960;BMP280;59832;51.146;14.024;2023-11-21T03:54:04;97588.94;;;6.92
71960;BMP280;59832;51.146;14.024;2023-11-21T03:56:31;97590.03;;;6.91
71960;BMP280;59832;51.146;14.024;2023-11-21T03:58:57;97584.97;;;6.91
71960;BMP280;59832;51.146;14.024;2023-11-21T04:01:24;97593.31;;;6.91
71960;BMP280;59832;51.146;14.024;2023-11-21T04:03:50;97594.50;;;6.97
71960;BMP280;59832;51.146;14.024;2023-11-21T04:06:17;97593.69;;;6.93
71960;BMP280;59832;51.146;14.024;2023-11-21T04:08:44;97598.69;;;6.90
71960;BMP280;59832;51.146;14.024;2023-11-21T04:11:11;97598.75;;;6.93
71960;BMP280;59832;51.146;14.024;2023-11-21T04:13:41;97604.69;;;6.85
71960;BMP280;59832;51.146;14.024;2023-11-21T04:16:09;97599.94;;;6.83
71960;BMP280;59832;51.146;14.024;2023-11-21T04:18:36;97601.38;;;6.81
71960;BMP280;59832;51.146;14.024;2023-11-21T04:21:03;97603.56;;;6.82
71960;BMP280;59832;51.146;14.024;2023-11-21T04:23:30;97595.91;;;6.79
71960;BMP280;59832;51.146;14.024;2023-11-21T04:25:58;97603.16;;;6.80
71960;BMP280;59832;51.146;14.024;2023-11-21T04:28:25;97606.47;;;6.84
71960;BMP280;59832;51.146;14.024;2023-11-21T04:30:51;97602.44;;;6.80
71960;BMP280;59832;51.146;14.024;2023-11-21T04:33:18;97610.75;;;6.80
71960;BMP280;59832;51.146;14.024;2023-11-21T04:35:44;97610.34;;;6.78
71960;BMP280;59832;51.146;14.024;2023-11-21T04:38:11;97611.41;;;6.77
71960;BMP280;59832;51.146;14.024;2023-11-21T04:40:37;97613.84;;;6.74
71960;BMP280;59832;51.146;14.024;2023-11-21T04:43:04;97613.19;;;6.77
71960;BMP280;59832;51.146;14.024;2023-11-21T04:45:31;97623.22;;;6.73
71960;BMP280;59832;51.146;14.024;2023-11-21T04:47:57;97618.91;;;6.74
71960;BMP280;59832;51.146;14.024;2023-11-21T04:50:23;97619.63;;;6.74
71960;BMP280;59832;51.146;14.024;2023-11-21T04:52:52;97625.00;;;6.73
71960;BMP280;59832;51.146;14.024;2023-11-21T04:55:18;97632.50;;;6.69
71960;BMP280;59832;51.146;14.024;2023-11-21T04:57:45;97631.06;;;6.68
71960;BMP280;59832;51.146;14.024;2023-11-21T05:00:13;97629.97;;;6.69
71960;BMP280;59832;51.146;14.024;2023-11-21T05:02:40;97620.84;;;6.65
71960;BMP280;59832;51.146;14.024;2023-11-21T05:05:08;97629.06;;;6.62
71960;BMP280;59832;51.146;14.024;2023-11-21T05:07:36;97628.34;;;6.61
71960;BMP280;59832;51.146;14.024;2023-11-21T05:10:04;97632.09;;;6.67
71960;BMP280;59832;51.146;14.024;2023-11-21T05:12:34;97628.84;;;6.67
71960;BMP280;59832;51.146;14.024;2023-11-21T05:15:07;97636.34;;;6.63
71960;BMP280;59832;51.146;14.024;2023-11-21T05:17:36;97638.63;;;6.68
71960;BMP280;59832;51.146;14.024;2023-11-21T05:20:03;97645.81;;;6.66
71960;BMP280;59832;51.146;14.024;2023-11-21T05:22:30;97648.75;;;6.68
71960;BMP280;59832;51.146;14.024;2023-11-21T05:24:56;97649.66;;;6.76
71960;BMP280;59832;51.146;14.024;2023-11-21T05:27:23;97652.50;;;6.74
71960;BMP280;59832;51.146;14.024;2023-11-21T05:29:50;97640.25;;;6.76
71960;BMP280;59832;51.146;14.024;2023-11-21T05:32:16;97646.38;;;6.75
71960;BMP280;59832;51.146;14.024;2023-11-21T05:34:43;97647.13;;;6.76
71960;BMP280;59832;51.146;14.024;2023-11-21T05:37:10;97660.75;;;6.71
71960;BMP280;59832;51.146;14.024;2023-11-21T05:39:36;97656.09;;;6.73
71960;BMP280;59832;51.146;14.024;2023-11-21T05:42:03;97654.94;;;6.71
71960;BMP280;59832;51.146;14.024;2023-11-21T05:44:30;97648.91;;;6.75
71960;BMP280;59832;51.146;14.024;2023-11-21T05:46:56;97659.38;;;6.74
71960;BMP280;59832;51.146;14.024;2023-11-21T05:49:25;97660.06;;;6.74
71960;BMP280;59832;51.146;14.024;2023-11-21T05:51:55;97654.31;;;6.74
71960;BMP280;59832;51.146;14.024;2023-11-21T05:54:24;97662.53;;;6.71
71960;BMP280;59832;51.146;14.024;2023-11-21T05:56:50;97657.78;;;6.69
71960;BMP280;59832;51.146;14.024;2023-11-21T05:59:16;97664.91;;;6.64
71960;BMP280;59832;51.146;14.024;2023-11-21T06:01:45;97664.78;;;6.60
71960;BMP280;59832;51.146;14.024;2023-11-21T06:04:12;97660.91;;;6.63
71960;BMP280;59832;51.146;14.024;2023-11-21T06:06:39;97660.47;;;6.61
71960;BMP280;59832;51.146;14.024;2023-11-21T06:09:05;97663.31;;;6.59
71960;BMP280;59832;51.146;14.024;2023-11-21T06:11:35;97666.59;;;6.60
71960;BMP280;59832;51.146;14.024;2023-11-21T06:14:01;97678.47;;;6.59
71960;BMP280;59832;51.146;14.024;2023-11-21T06:16:28;97676.22;;;6.54
71960;BMP280;59832;51.146;14.024;2023-11-21T06:18:55;97680.28;;;6.59
71960;BMP280;59832;51.146;14.024;2023-11-21T06:21:21;97686.97;;;6.51
71960;BMP280;59832;51.146;14.024;2023-11-21T06:23:48;97683.81;;;6.54
71960;BMP280;59832;51.146;14.024;2023-11-21T06:26:18;97689.59;;;6.55
71960;BMP280;59832;51.146;14.024;2023-11-21T06:28:45;97694.72;;;6.58
71960;BMP280;59832;51.146;14.024;2023-11-21T06:31:11;97697.19;;;6.55
71960;BMP280;59832;51.146;14.024;2023-11-21T06:33:38;97697.56;;;6.57
71960;BMP280;59832;51.146;14.024;2023-11-21T06:36:04;97701.97;;;6.60
71960;BMP280;59832;51.146;14.024;2023-11-21T06:38:32;97701.91;;;6.56
71960;BMP280;59832;51.146;14.024;2023-11-21T06:40:58;97701.19;;;6.56
71960;BMP280;59832;51.146;14.024;2023-11-21T06:43:28;97710.31;;;6.60
71960;BMP280;59832;51.146;14.024;2023-11-21T06:45:54;97708.19;;;6.62
71960;BMP280;59832;51.146;14.024;2023-11-21T06:48:20;97695.31;;;6.67
71960;BMP280;59832;51.146;14.024;2023-11-21T06:50:47;97709.09;;;6.70
71960;BMP280;59832;51.146;14.024;2023-11-21T06:53:13;97699.47;;;6.75
71960;BMP280;59832;51.146;14.024;2023-11-21T06:55:40;97712.28;;;6.67
71960;BMP280;59832;51.146;14.024;2023-11-21T06:58:06;97710.00;;;6.62
71960;BMP280;59832;51.146;14.024;2023-11-21T07:00:33;97714.00;;;6.63
71960;BMP280;59832;51.146;14.024;2023-11-21T07:02:59;97713.16;;;6.59
71960;BMP280;59832;51.146;14.024;2023-11-21T07:05:26;97719.25;;;6.58
71960;BMP280;59832;51.146;14.024;2023-11-21T07:07:52;97712.81;;;6.60
71960;BMP280;59832;51.146;14.024;2023-11-21T07:10:20;97713.16;;;6.59
71960;BMP280;59832;51.146;14.024;2023-11-21T07:12:47;97714.53;;;6.56
71960;BMP280;59832;51.146;14.024;2023-11-21T07:15:13;97715.97;;;6.57
71960;BMP280;59832;51.146;14.024;2023-11-21T07:17:39;97720.09;;;6.62
71960;BMP280;59832;51.146;14.024;2023-11-21T07:20:07;97728.13;;;6.64
71960;BMP280;59832;51.146;14.024;2023-11-21T07:22:34;97732.59;;;6.70
71960;BMP280;59832;51.146;14.024;2023-11-21T07:25:00;97735.78;;;6.67
71960;BMP280;59832;51.146;14.024;2023-11-21T07:27:26;97734.97;;;6.63
71960;BMP280;59832;51.146;14.024;2023-11-21T07:29:53;97730.94;;;6.62
71960;BMP280;59832;51.146;14.024;2023-11-21T07:32:19;97738.13;;;6.60
71960;BMP280;59832;51.146;14.024;2023-11-21T07:34:46;97730.09;;;6.58
71960;BMP280;59832;51.146;14.024;2023-11-21T07:37:12;97744.16;;;6.56
71960;BMP280;59832;51.146;14.024;2023-11-21T07:39:38;97737.81;;;6.62
71960;BMP280;59832;51.146;14.024;2023-11-21T07:42:08;97741.50;;;6.64
71960;BMP280;59832;51.146;14.024;2023-11-21T07:44:35;97742.44;;;6.60
71960;BMP280;59832;51.146;14.024;2023-11-21T07:47:01;97746.44;;;6.61
71960;BMP280;59832;51.146;14.024;2023-11-21T07:49:28;97747.28;;;6.65
71960;BMP280;59832;51.146;14.024;2023-11-21T07:51:54;97759.06;;;6.73
71960;BMP280;59832;51.146;14.024;2023-11-21T07:54:21;97746.41;;;6.73
71960;BMP280;59832;51.146;14.024;2023-11-21T07:56:47;97751.78;;;6.71
71960;BMP280;59832;51.146;14.024;2023-11-21T07:59:14;97742.63;;;6.67
71960;BMP280;59832;51.146;14.024;2023-11-21T08:01:40;97756.00;;;6.67
71960;BMP280;59832;51.146;14.024;2023-11-21T08:04:07;97757.50;;;6.68
71960;BMP280;59832;51.146;14.024;2023-11-21T08:06:34;97755.34;;;6.70
71960;BMP280;59832;51.146;14.024;2023-11-21T08:09:01;97751.03;;;6.71
71960;BMP280;59832;51.146;14.024;2023-11-21T08:11:28;97755.31;;;6.82
71960;BMP280;59832;51.146;14.024;2023-11-21T08:13:56;97759.41;;;6.87
71960;BMP280;59832;51.146;14.024;2023-11-21T08:16:23;97759.75;;;7.01
71960;BMP280;59832;51.146;14.024;2023-11-21T08:18:50;97755.66;;;6.81
71960;BMP280;59832;51.146;14.024;2023-11-21T08:21:17;97751.66;;;6.80
71960;BMP280;59832;51.146;14.024;2023-11-21T08:23:45;97757.94;;;6.86
71960;BMP280;59832;51.146;14.024;2023-11-21T08:26:11;97752.97;;;6.90
71960;BMP280;59832;51.146;14.024;2023-11-21T08:28:38;97752.41;;;6.96
71960;BMP280;59832;51.146;14.024;2023-11-21T08:31:04;97754.22;;;6.83
71960;BMP280;59832;51.146;14.024;2023-11-21T08:33:31;97760.03;;;6.84
71960;BMP280;59832;51.146;14.024;2023-11-21T08:35:57;97759.72;;;6.85
71960;BMP280;59832;51.146;14.024;2023-11-21T08:38:23;97766.88;;;6.83
71960;BMP280;59832;51.146;14.024;2023-11-21T08:40:50;97769.53;;;6.87
71960;BMP280;59832;51.146;14.024;2023-11-21T08:43:16;97764.88;;;6.89
71960;BMP280;59832;51.146;14.024;2023-11-21T08:45:46;97763.50;;;6.92
71960;BMP280;59832;51.146;14.024;2023-11-21T08:48:13;97769.94;;;6.89
71960;BMP280;59832;51.146;14.024;2023-11-21T08:50:39;97776.81;;;6.89
71960;BMP280;59832;51.146;14.024;2023-11-21T08:53:05;97775.22;;;6.84
71960;BMP280;59832;51.146;14.024;2023-11-21T08:55:32;97779.06;;;6.78
71960;BMP280;59832;51.146;14.024;2023-11-21T08:58:04;97781.31;;;6.83
71960;BMP280;59832;51.146;14.024;2023-11-21T09:00:32;97780.22;;;6.80
71960;BMP280;59832;51.146;14.024;2023-11-21T09:02:58;97779.91;;;6.82
71960;BMP280;59832;51.146;14.024;2023-11-21T09:05:25;97779.97;;;6.85
71960;BMP280;59832;51.146;14.024;2023-11-21T09:07:52;97779.53;;;6.83
71960;BMP280;59832;51.146;14.024;2023-11-21T09:10:18;97782.78;;;6.84
71960;BMP280;59832;51.146;14.024;2023-11-21T09:12:45;97791.38;;;6.79
71960;BMP280;59832;51.146;14.024;2023-11-21T09:15:12;97792.19;;;6.83
71960;BMP280;59832;51.146;14.024;2023-11-21T09:17:39;97797.47;;;6.91
71960;BMP280;59832;51.146;14.024;2023-11-21T09:20:07;97795.97;;;6.90
71960;BMP280;59832;51.146;14.024;2023-11-21T09:22:36;97800.38;;;6.93
71960;BMP280;59832;51.146;14.024;2023-11-21T09:25:02;97805.53;;;6.96
71960;BMP280;59832;51.146;14.024;2023-11-21T09:27:31;97802.88;;;6.77
71960;BMP280;59832;51.146;14.024;2023-11-21T09:29:58;97812.56;;;6.75
71960;BMP280;59832;51.146;14.024;2023-11-21T09:32:24;97810.75;;;6.75
71960;BMP280;59832;51.146;14.024;2023-11-21T09:34:52;97812.69;;;6.66
71960;BMP280;59832;51.146;14.024;2023-11-21T09:37:21;97816.19;;;6.62
71960;BMP280;59832;51.146;14.024;2023-11-21T09:39:48;97815.03;;;6.59
71960;BMP280;59832;51.146;14.024;2023-11-21T09:42:20;97822.34;;;6.36
71960;BMP280;59832;51.146;14.024;2023-11-21T09:44:59;97823.03;;;6.49
71960;BMP280;59832;51.146;14.024;2023-11-21T09:47:29;97832.03;;;6.34
71960;BMP280;59832;51.146;14.024;2023-11-21T09:49:56;97832.16;;;6.38
71960;BMP280;59832;51.146;14.024;2023-11-21T09:52:28;97832.97;;;6.42
71960;BMP280;59832;51.146;14.024;2023-11-21T09:54:55;97843.09;;;6.30
71960;BMP280;59832;51.146;14.024;2023-11-21T09:57:24;97842.13;;;6.22
71960;BMP280;59832;51.146;14.024;2023-11-21T09:59:53;97842.88;;;6.23
71960;BMP280;59832;51.146;14.024;2023-11-21T10:02:26;97845.41;;;6.11
71960;BMP280;59832;51.146;14.024;2023-11-21T10:04:55;97848.69;;;6.11
71960;BMP280;59832;51.146;14.024;2023-11-21T10:07:21;97847.50;;;5.96
71960;BMP280;59832;51.146;14.024;2023-11-21T10:09:48;97847.28;;;5.89
71960;BMP280;59832;51.146;14.024;2023-11-21T10:12:17;97854.44;;;5.87
71960;BMP280;59832;51.146;14.024;2023-11-21T10:14:43;97859.63;;;6.03
71960;BMP280;59832;51.146;14.024;2023-11-21T10:17:12;97851.84;;;5.96
71960;BMP280;59832;51.146;14.024;2023-11-21T10:19:39;97856.31;;;5.90
71960;BMP280;59832;51.146;14.024;2023-11-21T10:22:06;97853.72;;;5.99
71960;BMP280;59832;51.146;14.024;2023-11-21T10:24:33;97855.28;;;5.91
71960;BMP280;59832;51.146;14.024;2023-11-21T10:27:13;97864.16;;;6.10
71960;BMP280;59832;51.146;14.024;2023-11-21T10:29:40;97863.53;;;6.00
71960;BMP280;59832;51.146;14.024;2023-11-21T10:32:08;97875.19;;;5.93
71960;BMP280;59832;51.146;14.024;2023-11-21T10:34:34;97871.78;;;5.89
71960;BMP280;59832;51.146;14.024;2023-11-21T10:37:10;97877.72;;;5.93
71960;BMP280;59832;51.146;14.024;2023-11-21T10:39:38;97873.41;;;5.93
71960;BMP280;59832;51.146;14.024;2023-11-21T10:42:07;97881.59;;;5.90
71960;BMP280;59832;51.146;14.024;2023-11-21T10:44:34;97880.09;;;5.89
71960;BMP280;59832;51.146;14.024;2023-11-21T10:47:00;97883.03;;;5.79
71960;BMP280;59832;51.146;14.024;2023-11-21T10:49:27;97891.66;;;5.66
71960;BMP280;59832;51.146;14.024;2023-11-21T10:51:54;97885.25;;;5.48
71960;BMP280;59832;51.146;14.024;2023-11-21T10:54:21;97877.22;;;5.34
71960;BMP280;59832;51.146;14.024;2023-11-21T10:56:53;97889.75;;;5.42
71960;BMP280;59832;51.146;14.024;2023-11-21T10:59:19;97886.81;;;5.40
71960;BMP280;59832;51.146;14.024;2023-11-21T11:01:51;97888.38;;;5.33
71960;BMP280;59832;51.146;14.024;2023-11-21T11:04:19;97892.84;;;5.27
71960;BMP280;59832;51.146;14.024;2023-11-21T11:06:50;97894.25;;;5.37
71960;BMP280;59832;51.146;14.024;2023-11-21T11:09:17;97895.50;;;5.31
71960;BMP280;59832;51.146;14.024;2023-11-21T11:11:44;97895.50;;;5.31
71960;BMP280;59832;51.146;14.024;2023-11-21T11:14:11;97895.16;;;5.41
71960;BMP280;59832;51.146;14.024;2023-11-21T11:16:39;97904.50;;;5.40
71960;BMP280;59832;51.146;14.024;2023-11-21T11:19:07;97898.25;;;5.38
71960;BMP280;59832;51.146;14.024;2023-11-21T11:21:38;97903.53;;;5.45
71960;BMP280;59832;51.146;14.024;2023-11-21T11:26:45;97906.63;;;5.30
71960;BMP280;59832;51.146;14.024;2023-11-21T11:29:50;97912.13;;;5.32
71960;BMP280;59832;51.146;14.024;2023-11-21T11:34:49;97918.03;;;5.15
71960;BMP280;59832;51.146;14.024;2023-11-21T11:37:16;97917.13;;;5.11
71960;BMP280;59832;51.146;14.024;2023-11-21T11:39:43;97921.44;;;5.10
71960;BMP280;59832;51.146;14.024;2023-11-21T11:42:14;97922.59;;;5.01
71960;BMP280;59832;51.146;14.024;2023-11-21T11:47:22;97918.94;;;5.10
71960;BMP280;59832;51.146;14.024;2023-11-21T11:49:57;97915.28;;;5.08
71960;BMP280;59832;51.146;14.024;2023-11-21T11:54:59;97924.88;;;4.85
71960;BMP280;59832;51.146;14.024;2023-11-21T11:57:25;97929.44;;;4.92
71960;BMP280;59832;51.146;14.024;2023-11-21T12:02:38;97938.53;;;4.84
71960;BMP280;59832;51.146;14.024;2023-11-21T12:05:09;97937.47;;;4.85
71960;BMP280;59832;51.146;14.024;2023-11-21T12:07:41;97947.59;;;4.76
71960;BMP280;59832;51.146;14.024;2023-11-21T12:10:08;97943.97;;;4.65
71960;BMP280;59832;51.146;14.024;2023-11-21T12:12:37;97950.63;;;4.61
71960;BMP280;59832;51.146;14.024;2023-11-21T12:15:05;97950.06;;;4.56
71960;BMP280;59832;51.146;14.024;2023-11-21T12:17:31;97958.50;;;4.60
71960;BMP280;59832;51.146;14.024;2023-11-21T12:20:02;97956.94;;;4.38
71960;BMP280;59832;51.146;14.024;2023-11-21T12:22:30;97964.34;;;4.43
71960;BMP280;59832;51.146;14.024;2023-11-21T12:24:57;97962.59;;;4.35
71960;BMP280;59832;51.146;14.024;2023-11-21T12:27:24;97971.63;;;4.36
71960;BMP280;59832;51.146;14.024;2023-11-21T12:29:51;97968.38;;;4.27
71960;BMP280;59832;51.146;14.024;2023-11-21T12:32:18;97966.44;;;4.32
71960;BMP280;59832;51.146;14.024;2023-11-21T12:34:45;97977.38;;;4.37
71960;BMP280;59832;51.146;14.024;2023-11-21T12:37:13;97978.47;;;4.27
71960;BMP280;59832;51.146;14.024;2023-11-21T12:39:39;97982.88;;;4.39
71960;BMP280;59832;51.146;14.024;2023-11-21T12:42:05;97985.09;;;4.40
71960;BMP280;59832;51.146;14.024;2023-11-21T12:44:32;97990.16;;;4.40
71960;BMP280;59832;51.146;14.024;2023-11-21T12:46:59;97997.44;;;4.24
71960;BMP280;59832;51.146;14.024;2023-11-21T12:49:25;97988.81;;;4.25
71960;BMP280;59832;51.146;14.024;2023-11-21T12:51:52;98005.13;;;4.28
71960;BMP280;59832;51.146;14.024;2023-11-21T12:54:19;98001.44;;;4.17
71960;BMP280;59832;51.146;14.024;2023-11-21T12:56:46;98007.94;;;4.18
71960;BMP280;59832;51.146;14.024;2023-11-21T12:59:15;98004.41;;;4.27
71960;BMP280;59832;51.146;14.024;2023-11-21T13:01:44;98011.78;;;4.24
71960;BMP280;59832;51.146;14.024;2023-11-21T13:04:12;98017.47;;;4.12
71960;BMP280;59832;51.146;14.024;2023-11-21T13:06:38;98020.56;;;4.09
71960;BMP280;59832;51.146;14.024;2023-11-21T13:09:07;98015.22;;;4.02
71960;BMP280;59832;51.146;14.024;2023-11-21T13:11:37;98022.06;;;3.93
71960;BMP280;59832;51.146;14.024;2023-11-21T13:14:03;98023.38;;;3.90
71960;BMP280;59832;51.146;14.024;2023-11-21T13:16:30;98024.41;;;3.89
71960;BMP280;59832;51.146;14.024;2023-11-21T13:18:58;98034.66;;;3.93
71960;BMP280;59832;51.146;14.024;2023-11-21T13:21:24;98034.06;;;3.87
71960;BMP280;59832;51.146;14.024;2023-11-21T13:23:50;98034.91;;;3.83
71960;BMP280;59832;51.146;14.024;2023-11-21T13:26:19;98038.19;;;3.83
71960;BMP280;59832;51.146;14.024;2023-11-21T13:28:47;98037.31;;;3.97
71960;BMP280;59832;51.146;14.024;2023-11-21T13:31:13;98036.69;;;4.00
71960;BMP280;59832;51.146;14.024;2023-11-21T13:33:53;98046.47;;;4.01
71960;BMP280;59832;51.146;14.024;2023-11-21T13:36:30;98044.88;;;4.05
71960;BMP280;59832;51.146;14.024;2023-11-21T13:38:59;98058.03;;;4.02
71960;BMP280;59832;51.146;14.024;2023-11-21T13:41:30;98051.66;;;3.96
71960;BMP280;59832;51.146;14.024;2023-11-21T13:43:58;98065.00;;;3.88
71960;BMP280;59832;51.146;14.024;2023-11-21T13:46:32;98059.50;;;3.69
71960;BMP280;59832;51.146;14.024;2023-11-21T13:49:04;98076.22;;;3.65
71960;BMP280;59832;51.146;14.024;2023-11-21T13:51:36;98074.53;;;3.51
71960;BMP280;59832;51.146;14.024;2023-11-21T13:54:07;98076.03;;;3.52
71960;BMP280;59832;51.146;14.024;2023-11-21T13:56:37;98085.50;;;3.47
71960;BMP280;59832;51.146;14.024;2023-11-21T13:59:05;98085.31;;;3.35
71960;BMP280;59832;51.146;14.024;2023-11-21T14:01:49;98082.19;;;3.38
71960;BMP280;59832;51.146;14.024;2023-11-21T14:04:24;98088.66;;;3.30
71960;BMP280;59832;51.146;14.024;2023-11-21T14:06:57;98098.41;;;3.23
71960;BMP280;59832;51.146;14.024;2023-11-21T14:09:25;98103.63;;;3.27
71960;BMP280;59832;51.146;14.024;2023-11-21T14:11:58;98098.72;;;3.30
71960;BMP280;59832;51.146;14.024;2023-11-21T14:14:27;98105.66;;;3.25
71960;BMP280;59832;51.146;14.024;2023-11-21T14:16:56;98109.53;;;3.22
71960;BMP280;59832;51.146;14.024;2023-11-21T14:19:24;98102.88;;;3.26
71960;BMP280;59832;51.146;14.024;2023-11-21T14:21:56;98107.34;;;3.38
71960;BMP280;59832;51.146;14.024;2023-11-21T14:24:23;98108.50;;;3.32